NKS1833 KDFW-KGYR
Flight info
| Callsign | NKS1833 |
|---|---|
| Flight time | N/A |
| Altitude | 38000 |
| Route | NELYN6 HOARY JCT EWM SSO SUNSS8 |
| Aircraft | A20N/M-SDE2E3FGHIRWXY/LB1 |
Departure
| Time | 2026-05-06 21:03 |
|---|---|
| Airport | Dallas Fort Worth International Airport (KDFW) |
Arrival
| Time | N/A |
|---|---|
| Airport | Phoenix Goodyear Airport (KGYR) |
| Time | Latitude | Longitude | Altitude | Speed | Heading |
|---|---|---|---|---|---|
| 2026-05-06 20:24 | 32.88401 | -97.03543 | 598 ft | 0 kts | 295° |
| 2026-05-06 20:35 | 32.88399 | -97.03537 | 598 ft | 4 kts | 297° |
| 2026-05-06 20:35 | 32.88384 | -97.03510 | 598 ft | 4 kts | 317° |
| 2026-05-06 20:35 | 32.88362 | -97.03493 | 598 ft | 4 kts | 345° |
| 2026-05-06 20:35 | 32.88343 | -97.03490 | 598 ft | 3 kts | 358° |
| 2026-05-06 20:36 | 32.88365 | -97.03489 | 598 ft | 4 kts | 1° |
| 2026-05-06 20:36 | 32.88392 | -97.03489 | 598 ft | 4 kts | 1° |
| 2026-05-06 20:36 | 32.88419 | -97.03488 | 598 ft | 4 kts | 1° |
| 2026-05-06 20:36 | 32.88446 | -97.03488 | 598 ft | 4 kts | 0° |
| 2026-05-06 20:37 | 32.88467 | -97.03488 | 598 ft | 4 kts | 357° |
| 2026-05-06 20:37 | 32.88494 | -97.03490 | 598 ft | 4 kts | 359° |
| 2026-05-06 20:37 | 32.88519 | -97.03488 | 598 ft | 4 kts | 5° |
| 2026-05-06 20:37 | 32.88546 | -97.03486 | 598 ft | 4 kts | 1° |
| 2026-05-06 20:38 | 32.88573 | -97.03489 | 598 ft | 4 kts | 350° |
| 2026-05-06 20:38 | 32.88596 | -97.03503 | 598 ft | 4 kts | 320° |
| 2026-05-06 20:38 | 32.88604 | -97.03531 | 598 ft | 3 kts | 272° |
| 2026-05-06 20:38 | 32.88611 | -97.03550 | 598 ft | 4 kts | 311° |
| 2026-05-06 20:39 | 32.88635 | -97.03563 | 598 ft | 4 kts | 344° |
| 2026-05-06 20:39 | 32.88654 | -97.03566 | 598 ft | 0 kts | 352° |
| 2026-05-06 20:40 | 32.88680 | -97.03568 | 598 ft | 3 kts | 358° |
| 2026-05-06 20:40 | 32.88704 | -97.03581 | 598 ft | 4 kts | 332° |
| 2026-05-06 20:41 | 32.88729 | -97.03592 | 598 ft | 4 kts | 346° |
| 2026-05-06 20:41 | 32.88755 | -97.03590 | 598 ft | 4 kts | 14° |
| 2026-05-06 20:41 | 32.88778 | -97.03574 | 598 ft | 3 kts | 37° |
| 2026-05-06 20:41 | 32.88796 | -97.03560 | 598 ft | 4 kts | 29° |
| 2026-05-06 20:42 | 32.88819 | -97.03563 | 598 ft | 4 kts | 333° |
| 2026-05-06 20:42 | 32.88827 | -97.03570 | 598 ft | 0 kts | 324° |
| 2026-05-06 20:46 | 32.88841 | -97.03583 | 598 ft | 0 kts | 322° |
| 2026-05-06 20:47 | 32.88843 | -97.03584 | 598 ft | 0 kts | 323° |
| 2026-05-06 20:55 | 32.88836 | -97.03578 | 598 ft | 3 kts | 318° |
| 2026-05-06 20:55 | 32.88820 | -97.03554 | 598 ft | 4 kts | 280° |
| 2026-05-06 20:55 | 32.88824 | -97.03529 | 598 ft | 1 kts | 217° |
| 2026-05-06 20:55 | 32.88825 | -97.03528 | 598 ft | 0 kts | 216° |
| 2026-05-06 20:58 | 32.88798 | -97.03551 | 598 ft | 12 kts | 215° |
| 2026-05-06 20:58 | 32.88693 | -97.03566 | 598 ft | 19 kts | 176° |
| 2026-05-06 20:59 | 32.88602 | -97.03595 | 598 ft | 12 kts | 252° |
| 2026-05-06 20:59 | 32.88602 | -97.03763 | 598 ft | 27 kts | 271° |
| 2026-05-06 20:59 | 32.88605 | -97.04031 | 598 ft | 37 kts | 271° |
| 2026-05-06 20:59 | 32.88606 | -97.04348 | 598 ft | 39 kts | 270° |
| 2026-05-06 21:00 | 32.88607 | -97.04647 | 598 ft | 26 kts | 270° |
| 2026-05-06 21:00 | 32.88516 | -97.04784 | 598 ft | 23 kts | 205° |
| 2026-05-06 21:00 | 32.88351 | -97.04810 | 598 ft | 27 kts | 179° |
| 2026-05-06 21:00 | 32.88151 | -97.04808 | 598 ft | 31 kts | 181° |
| 2026-05-06 21:01 | 32.87989 | -97.04809 | 598 ft | 17 kts | 180° |
| 2026-05-06 21:01 | 32.87905 | -97.04841 | 598 ft | 7 kts | 249° |
| 2026-05-06 21:01 | 32.87909 | -97.04892 | 610 ft | 11 kts | 277° |
| 2026-05-06 21:01 | 32.87910 | -97.05017 | 598 ft | 18 kts | 274° |
| 2026-05-06 21:02 | 32.88010 | -97.05094 | 598 ft | 25 kts | 357° |
| 2026-05-06 21:02 | 32.88210 | -97.05092 | 598 ft | 53 kts | 0° |
| 2026-05-06 21:02 | 32.88918 | -97.05088 | 601 ft | 146 kts | 0° |
| 2026-05-06 21:02 | 32.90070 | -97.05093 | 1059 ft | 185 kts | 0° |
| 2026-05-06 21:03 | 32.91381 | -97.05384 | 2152 ft | 197 kts | 336° |
| 2026-05-06 21:03 | 32.92658 | -97.06187 | 3403 ft | 221 kts | 334° |
| 2026-05-06 21:03 | 32.94160 | -97.06931 | 4512 ft | 245 kts | 340° |
| 2026-05-06 21:03 | 32.95843 | -97.07429 | 5841 ft | 258 kts | 345° |
| 2026-05-06 21:04 | 32.97644 | -97.07767 | 7193 ft | 265 kts | 344° |
| 2026-05-06 21:04 | 32.99335 | -97.08610 | 8398 ft | 265 kts | 319° |
| 2026-05-06 21:04 | 33.00537 | -97.10248 | 9617 ft | 263 kts | 292° |
| 2026-05-06 21:04 | 33.00988 | -97.12290 | 10849 ft | 256 kts | 267° |
| 2026-05-06 21:05 | 33.00873 | -97.14383 | 12363 ft | 249 kts | 262° |
| 2026-05-06 21:05 | 33.00738 | -97.16449 | 13656 ft | 251 kts | 262° |
| 2026-05-06 21:05 | 33.00582 | -97.18560 | 14580 ft | 263 kts | 260° |
| 2026-05-06 21:05 | 33.00344 | -97.20777 | 15183 ft | 283 kts | 256° |
| 2026-05-06 21:06 | 32.99756 | -97.23099 | 15661 ft | 303 kts | 245° |
| 2026-05-06 21:06 | 32.98673 | -97.25305 | 16464 ft | 310 kts | 234° |
| 2026-05-06 21:06 | 32.97196 | -97.27179 | 17594 ft | 309 kts | 225° |
| 2026-05-06 21:06 | 32.95387 | -97.28561 | 18570 ft | 321 kts | 210° |
| 2026-05-06 21:07 | 32.93151 | -97.29207 | 19259 ft | 341 kts | 195° |
| 2026-05-06 21:07 | 32.90727 | -97.29310 | 19976 ft | 354 kts | 189° |
| 2026-05-06 21:07 | 32.88232 | -97.29178 | 20681 ft | 362 kts | 187° |
| 2026-05-06 21:07 | 32.85729 | -97.28985 | 21422 ft | 367 kts | 187° |
| 2026-05-06 21:08 | 32.83141 | -97.28792 | 22184 ft | 372 kts | 187° |
| 2026-05-06 21:08 | 32.80531 | -97.28620 | 22947 ft | 378 kts | 188° |
| 2026-05-06 21:08 | 32.77905 | -97.28417 | 23689 ft | 387 kts | 185° |
| 2026-05-06 21:08 | 32.75205 | -97.27922 | 24396 ft | 394 kts | 181° |
| 2026-05-06 21:09 | 32.72481 | -97.27362 | 25089 ft | 397 kts | 181° |
| 2026-05-06 21:09 | 32.69773 | -97.26813 | 25750 ft | 400 kts | 182° |
| 2026-05-06 21:09 | 32.67012 | -97.26259 | 26344 ft | 403 kts | 181° |
| 2026-05-06 21:09 | 32.64221 | -97.25703 | 26909 ft | 407 kts | 181° |
| 2026-05-06 21:10 | 32.61402 | -97.25140 | 27514 ft | 410 kts | 181° |
| 2026-05-06 21:10 | 32.58622 | -97.24584 | 28077 ft | 412 kts | 182° |
| 2026-05-06 21:10 | 32.55779 | -97.24017 | 28619 ft | 416 kts | 182° |
| 2026-05-06 21:10 | 32.52904 | -97.23443 | 29151 ft | 419 kts | 182° |
| 2026-05-06 21:11 | 32.50007 | -97.22866 | 29656 ft | 422 kts | 182° |
| 2026-05-06 21:11 | 32.47136 | -97.22294 | 30154 ft | 424 kts | 182° |
| 2026-05-06 21:11 | 32.44209 | -97.21711 | 30610 ft | 427 kts | 182° |
| 2026-05-06 21:11 | 32.41269 | -97.21125 | 31041 ft | 429 kts | 182° |
| 2026-05-06 21:12 | 32.38313 | -97.20538 | 31521 ft | 429 kts | 182° |
| 2026-05-06 21:12 | 32.35398 | -97.19955 | 32118 ft | 427 kts | 182° |
| 2026-05-06 21:12 | 32.32471 | -97.19370 | 32741 ft | 424 kts | 183° |
| 2026-05-06 21:12 | 32.29570 | -97.18983 | 33337 ft | 413 kts | 188° |
| 2026-05-06 21:13 | 32.26727 | -97.18916 | 33940 ft | 403 kts | 194° |
| 2026-05-06 21:13 | 32.23952 | -97.19145 | 34443 ft | 393 kts | 198° |
| 2026-05-06 21:13 | 32.21265 | -97.19524 | 34887 ft | 392 kts | 199° |
| 2026-05-06 21:13 | 32.18558 | -97.19901 | 35335 ft | 391 kts | 199° |
| 2026-05-06 21:14 | 32.15841 | -97.20271 | 35771 ft | 391 kts | 199° |
| 2026-05-06 21:14 | 32.13144 | -97.20636 | 36113 ft | 391 kts | 198° |
| 2026-05-06 21:14 | 32.10420 | -97.21007 | 36357 ft | 395 kts | 198° |
| 2026-05-06 21:14 | 32.07720 | -97.21369 | 36766 ft | 394 kts | 198° |
| 2026-05-06 21:15 | 32.04994 | -97.21730 | 37199 ft | 392 kts | 199° |
| 2026-05-06 21:15 | 32.02286 | -97.22090 | 37614 ft | 391 kts | 199° |
| 2026-05-06 21:15 | 31.99569 | -97.22452 | 37930 ft | 390 kts | 199° |
| 2026-05-06 21:16 | 31.94208 | -97.23166 | 37996 ft | 388 kts | 199° |
| 2026-05-06 21:16 | 31.88836 | -97.23886 | 37992 ft | 388 kts | 199° |
| 2026-05-06 21:17 | 31.83484 | -97.24602 | 37984 ft | 391 kts | 199° |
| 2026-05-06 21:17 | 31.78062 | -97.25321 | 37984 ft | 389 kts | 199° |
| 2026-05-06 21:18 | 31.72692 | -97.26034 | 37982 ft | 390 kts | 199° |
| 2026-05-06 21:18 | 31.67390 | -97.26956 | 37982 ft | 381 kts | 204° |
| 2026-05-06 21:19 | 31.62398 | -97.28766 | 38001 ft | 365 kts | 216° |
| 2026-05-06 21:19 | 31.60301 | -97.30302 | 37999 ft | 352 kts | 226° |
| 2026-05-06 21:19 | 31.58625 | -97.32331 | 37955 ft | 344 kts | 238° |
| 2026-05-06 21:20 | 31.56783 | -97.37486 | 38022 ft | 348 kts | 259° |
| 2026-05-06 21:20 | 31.56948 | -97.43183 | 38009 ft | 354 kts | 269° |
| 2026-05-06 21:21 | 31.57396 | -97.48943 | 38004 ft | 353 kts | 269° |
| 2026-05-06 21:21 | 31.57838 | -97.54657 | 37999 ft | 351 kts | 269° |
| 2026-05-06 21:22 | 31.58276 | -97.60313 | 37997 ft | 349 kts | 269° |
| 2026-05-06 21:22 | 31.58712 | -97.65995 | 37995 ft | 349 kts | 269° |
| 2026-05-06 21:23 | 31.59144 | -97.71643 | 37997 ft | 349 kts | 269° |
| 2026-05-06 21:23 | 31.59573 | -97.77298 | 37997 ft | 349 kts | 269° |
| 2026-05-06 21:24 | 31.60003 | -97.82979 | 37997 ft | 349 kts | 269° |
| 2026-05-06 21:24 | 31.60429 | -97.88654 | 37995 ft | 349 kts | 268° |
| 2026-05-06 21:25 | 31.60849 | -97.94296 | 37988 ft | 349 kts | 268° |